createdAt,value
2018-08-25T00:02:18.247Z,2.00
2018-08-25T00:04:45.693Z,2.07
2018-08-25T00:07:13.128Z,2.00
2018-08-25T00:09:40.560Z,1.90
2018-08-25T00:12:08.016Z,1.90
2018-08-25T00:14:35.409Z,1.77
2018-08-25T00:17:02.825Z,1.90
2018-08-25T00:19:30.285Z,1.90
2018-08-25T00:21:57.690Z,1.80
2018-08-25T00:24:25.126Z,2.30
2018-08-25T00:26:52.601Z,2.20
2018-08-25T00:29:19.998Z,2.20
2018-08-25T00:31:47.494Z,2.33
2018-08-25T00:34:14.901Z,2.43
2018-08-25T00:36:42.309Z,2.00
2018-08-25T00:39:09.741Z,2.03
2018-08-25T00:41:37.470Z,2.30
2018-08-25T00:44:04.954Z,2.20
2018-08-25T00:46:32.388Z,2.30
2018-08-25T00:48:59.785Z,2.80
2018-08-25T00:51:27.241Z,2.30
2018-08-25T00:53:54.643Z,2.43
2018-08-25T00:56:22.053Z,2.37
2018-08-25T00:58:49.498Z,2.60
2018-08-25T01:01:16.933Z,2.27
2018-08-25T01:03:44.374Z,2.40
2018-08-25T01:06:11.773Z,2.23
2018-08-25T01:08:39.184Z,2.50
2018-08-25T01:11:06.613Z,2.57
2018-08-25T01:13:34.068Z,2.40
2018-08-25T01:16:01.453Z,2.40
2018-08-25T01:18:28.909Z,2.33
2018-08-25T01:20:56.323Z,2.30
2018-08-25T01:23:23.717Z,2.50
2018-08-25T01:25:51.181Z,2.30
2018-08-25T01:28:18.585Z,2.37
2018-08-25T01:30:45.967Z,1.77
2018-08-25T01:33:13.359Z,2.00
2018-08-25T01:35:40.920Z,2.07
2018-08-25T01:38:08.564Z,2.13
2018-08-25T01:40:35.975Z,2.17
2018-08-25T01:43:03.446Z,2.10
2018-08-25T01:45:30.825Z,2.27
2018-08-25T01:47:58.236Z,2.30
2018-08-25T01:50:25.633Z,2.37
2018-08-25T01:52:53.076Z,1.83
2018-08-25T01:55:20.537Z,1.67
2018-08-25T01:57:47.932Z,2.03
2018-08-25T02:00:15.364Z,1.93
2018-08-25T02:02:42.827Z,2.00
2018-08-25T02:05:10.259Z,2.10
2018-08-25T02:07:37.675Z,2.30
2018-08-25T02:10:05.456Z,2.80
2018-08-25T02:12:32.901Z,2.67
2018-08-25T02:15:00.448Z,2.90
2018-08-25T02:17:27.956Z,2.77
2018-08-25T02:19:55.412Z,2.57
2018-08-25T02:22:22.792Z,2.20
2018-08-25T02:24:50.188Z,2.43
2018-08-25T02:27:17.617Z,2.03
2018-08-25T02:29:45.088Z,2.30
2018-08-25T02:32:12.480Z,2.00
2018-08-25T02:34:39.906Z,1.60
2018-08-25T02:37:07.357Z,1.70
2018-08-25T02:39:34.882Z,1.80
2018-08-25T02:42:02.289Z,1.80
2018-08-25T02:44:29.673Z,1.90
2018-08-25T02:46:57.097Z,2.00
2018-08-25T02:49:24.521Z,2.00
2018-08-25T02:51:51.923Z,1.50
2018-08-25T02:54:19.469Z,1.50
2018-08-25T02:56:46.839Z,1.67
2018-08-25T02:59:14.318Z,2.27
2018-08-25T03:01:41.726Z,1.53
2018-08-25T03:04:09.133Z,2.27
2018-08-25T03:06:36.548Z,2.10
2018-08-25T03:09:07.229Z,2.70
2018-08-25T03:11:34.618Z,2.20
2018-08-25T03:14:02.081Z,2.93
2018-08-25T03:16:30.135Z,2.80
2018-08-25T03:18:57.557Z,2.80
2018-08-25T03:21:24.961Z,2.33
2018-08-25T03:23:52.750Z,3.17
2018-08-25T03:26:20.168Z,2.67
2018-08-25T03:28:47.594Z,2.37
2018-08-25T03:31:15.050Z,2.40
2018-08-25T03:33:42.439Z,2.20
2018-08-25T03:36:09.847Z,2.70
2018-08-25T03:38:37.248Z,2.43
2018-08-25T03:41:05.148Z,2.50
2018-08-25T03:43:32.585Z,2.40
2018-08-25T03:46:00.006Z,2.37
2018-08-25T03:48:27.391Z,2.40
2018-08-25T03:50:54.871Z,2.20
2018-08-25T03:53:22.435Z,2.53
2018-08-25T03:55:49.815Z,2.53
2018-08-25T03:58:17.225Z,2.50
2018-08-25T04:00:44.636Z,2.53
2018-08-25T04:03:12.077Z,2.20
2018-08-25T04:05:39.497Z,2.23
2018-08-25T04:08:06.893Z,2.20
2018-08-25T04:10:34.344Z,2.20
2018-08-25T04:13:01.725Z,2.20
2018-08-25T04:15:29.117Z,2.40
2018-08-25T04:17:56.534Z,2.23
2018-08-25T04:20:23.930Z,2.40
2018-08-25T04:22:51.366Z,2.37
2018-08-25T04:25:18.806Z,2.50
2018-08-25T04:27:46.248Z,2.67
2018-08-25T04:30:13.654Z,2.20
2018-08-25T04:32:41.078Z,2.40
2018-08-25T04:35:08.516Z,2.40
2018-08-25T04:37:36.064Z,2.40
2018-08-25T04:40:03.500Z,3.27
2018-08-25T04:42:30.906Z,3.27
2018-08-25T04:44:58.394Z,3.10
2018-08-25T04:47:25.793Z,3.30
2018-08-25T04:49:53.178Z,3.00
2018-08-25T04:52:20.636Z,2.77
2018-08-25T04:54:48.029Z,2.60
2018-08-25T04:57:15.721Z,2.40
2018-08-25T04:59:43.152Z,2.70
2018-08-25T05:02:10.518Z,2.07
2018-08-25T05:04:37.953Z,1.90
2018-08-25T05:07:05.365Z,2.23
2018-08-25T05:09:32.774Z,1.47
2018-08-25T05:12:00.162Z,1.30
2018-08-25T05:14:27.629Z,1.43
2018-08-25T05:16:55.024Z,1.47
2018-08-25T05:19:22.441Z,1.40
2018-08-25T05:21:49.830Z,1.70
2018-08-25T05:24:17.242Z,1.70
2018-08-25T05:26:44.683Z,1.30
2018-08-25T05:29:12.100Z,1.33
2018-08-25T05:31:39.552Z,1.20
2018-08-25T05:34:07.645Z,1.27
2018-08-25T05:36:35.030Z,1.30
2018-08-25T05:39:02.560Z,1.23
2018-08-25T05:41:30.005Z,1.30
2018-08-25T05:43:57.392Z,1.40
2018-08-25T05:46:24.830Z,1.30
2018-08-25T05:48:52.223Z,1.17
2018-08-25T05:51:19.640Z,1.10
2018-08-25T05:53:47.094Z,1.57
2018-08-25T05:56:14.473Z,1.20
2018-08-25T05:58:41.945Z,1.40
2018-08-25T06:01:09.579Z,1.43
2018-08-25T06:03:37.058Z,1.60
2018-08-25T06:06:04.467Z,1.40
2018-08-25T06:08:32.145Z,1.40
2018-08-25T06:10:59.616Z,1.30
2018-08-25T06:13:27.032Z,1.53
2018-08-25T06:15:54.461Z,1.43
2018-08-25T06:18:21.917Z,1.30
2018-08-25T06:20:49.347Z,1.40
2018-08-25T06:23:16.750Z,1.30
2018-08-25T06:25:44.200Z,1.40
2018-08-25T06:28:11.574Z,1.53
2018-08-25T06:30:38.971Z,1.50
2018-08-25T06:33:06.382Z,1.50
2018-08-25T06:35:33.793Z,1.50
2018-08-25T06:38:01.252Z,1.77
2018-08-25T06:40:28.636Z,1.43
2018-08-25T06:42:56.065Z,1.10
2018-08-25T06:45:23.450Z,1.90
2018-08-25T06:47:50.857Z,1.63
2018-08-25T06:50:18.241Z,1.80
2018-08-25T06:52:45.685Z,1.30
2018-08-25T06:55:13.142Z,1.60
2018-08-25T06:57:40.692Z,1.40
2018-08-25T07:00:08.211Z,1.63
2018-08-25T07:02:35.686Z,1.67
2018-08-25T07:05:03.145Z,1.40
2018-08-25T07:07:30.542Z,1.43
2018-08-25T07:09:57.970Z,1.57
2018-08-25T07:12:25.394Z,1.37
2018-08-25T07:14:52.756Z,1.40
2018-08-25T07:17:20.198Z,1.90
2018-08-25T07:19:47.605Z,1.50
2018-08-25T07:22:14.989Z,1.47
2018-08-25T07:24:42.422Z,1.40
2018-08-25T07:27:09.862Z,1.50
2018-08-25T07:29:37.236Z,1.40
2018-08-25T07:32:04.665Z,1.37
2018-08-25T07:34:32.109Z,1.50
2018-08-25T07:36:59.554Z,1.00
2018-08-25T07:39:26.983Z,1.10
2018-08-25T07:41:54.398Z,1.50
2018-08-25T07:44:21.792Z,1.20
2018-08-25T07:46:49.196Z,1.63
2018-08-25T07:49:16.568Z,1.30
2018-08-25T07:51:43.948Z,1.40
2018-08-25T07:54:11.533Z,1.30
2018-08-25T07:56:38.929Z,1.40
2018-08-25T07:59:06.347Z,1.07
2018-08-25T08:01:33.813Z,0.83
2018-08-25T08:04:01.201Z,0.93
2018-08-25T08:06:29.552Z,1.23
2018-08-25T08:08:56.998Z,1.27
2018-08-25T08:11:24.457Z,1.00
2018-08-25T08:13:51.834Z,1.00
2018-08-25T08:16:19.219Z,1.07
2018-08-25T08:18:46.680Z,1.33
2018-08-25T08:21:14.069Z,1.00
2018-08-25T08:23:41.447Z,1.50
2018-08-25T08:26:08.968Z,1.10
2018-08-25T08:28:36.340Z,1.30
2018-08-25T08:31:03.751Z,1.00
2018-08-25T08:33:31.213Z,0.93
2018-08-25T08:35:58.596Z,1.10
2018-08-25T08:38:26.068Z,1.10
2018-08-25T08:40:53.455Z,1.20
2018-08-25T08:43:20.980Z,0.87
2018-08-25T08:45:48.537Z,1.20
2018-08-25T08:48:16.056Z,1.00
2018-08-25T08:50:43.513Z,1.10
2018-08-25T08:53:10.890Z,1.33
2018-08-25T08:55:38.313Z,0.93
2018-08-25T08:58:05.777Z,1.03
2018-08-25T09:00:33.184Z,1.07
2018-08-25T09:03:00.789Z,1.33
2018-08-25T09:05:28.429Z,1.47
2018-08-25T09:07:55.997Z,1.03
2018-08-25T09:10:23.386Z,1.00
2018-08-25T09:12:50.764Z,1.10
2018-08-25T09:15:18.213Z,1.27
2018-08-25T09:17:45.605Z,1.03
2018-08-25T09:20:13.012Z,1.00
2018-08-25T09:22:40.458Z,1.10
2018-08-25T09:25:07.872Z,0.93
2018-08-25T09:27:35.305Z,1.03
2018-08-25T09:30:02.993Z,1.00
2018-08-25T09:32:30.436Z,1.00
2018-08-25T09:34:57.891Z,0.97
2018-08-25T09:37:25.337Z,1.20
2018-08-25T09:39:52.742Z,0.97
2018-08-25T09:42:20.200Z,1.03
2018-08-25T09:44:47.590Z,0.90
2018-08-25T09:47:14.973Z,1.00
2018-08-25T09:49:42.449Z,1.20
2018-08-25T09:52:09.874Z,0.80
2018-08-25T09:54:37.265Z,0.60
2018-08-25T09:57:04.724Z,0.70
2018-08-25T09:59:32.109Z,0.70
2018-08-25T10:02:00.688Z,0.70
2018-08-25T10:04:29.769Z,0.60
2018-08-25T10:06:57.180Z,0.70
2018-08-25T10:09:24.556Z,0.60
2018-08-25T10:11:52.299Z,0.50
2018-08-25T10:14:19.761Z,0.70
2018-08-25T10:16:47.277Z,0.67
2018-08-25T10:19:14.690Z,0.87
2018-08-25T10:21:42.113Z,0.70
2018-08-25T10:24:09.549Z,0.80
2018-08-25T10:26:37.144Z,0.60
2018-08-25T10:29:04.760Z,0.57
2018-08-25T10:31:32.139Z,0.70
2018-08-25T10:33:59.764Z,0.97
2018-08-25T10:36:27.206Z,0.60
2018-08-25T10:38:54.633Z,0.83
2018-08-25T10:41:22.040Z,0.83
2018-08-25T10:43:49.412Z,0.90
2018-08-25T10:46:16.837Z,0.70
2018-08-25T10:48:44.224Z,0.90
2018-08-25T10:51:11.690Z,0.80
2018-08-25T10:53:39.316Z,1.00
2018-08-25T10:56:06.861Z,0.70
2018-08-25T10:58:34.321Z,0.90
2018-08-25T11:01:01.848Z,0.80
2018-08-25T11:03:29.198Z,1.00
2018-08-25T11:05:56.697Z,0.90
2018-08-25T11:08:24.157Z,1.10
2018-08-25T11:10:51.537Z,0.80
2018-08-25T11:13:18.946Z,0.80
2018-08-25T11:15:46.434Z,0.80
2018-08-25T11:18:13.841Z,0.90
2018-08-25T11:20:41.314Z,0.83
2018-08-25T11:23:08.692Z,0.80
2018-08-25T11:25:36.149Z,0.90
2018-08-25T11:28:03.637Z,0.90
2018-08-25T11:30:31.079Z,0.90
2018-08-25T11:32:58.505Z,0.80
2018-08-25T11:35:25.952Z,0.80
2018-08-25T11:37:53.529Z,0.90
2018-08-25T11:40:20.821Z,0.60
2018-08-25T11:42:48.369Z,0.90
2018-08-25T11:45:15.761Z,0.70
2018-08-25T11:47:43.200Z,0.90
2018-08-25T11:50:10.596Z,0.80
2018-08-25T11:52:37.975Z,0.80
2018-08-25T11:55:05.704Z,0.77
2018-08-25T11:57:33.154Z,0.80
2018-08-25T12:00:00.560Z,0.90
2018-08-25T12:02:27.977Z,0.60
2018-08-25T12:04:55.381Z,0.80
2018-08-25T12:07:22.769Z,0.70
2018-08-25T12:09:50.193Z,1.00
2018-08-25T12:12:17.578Z,0.80
2018-08-25T12:14:44.995Z,0.93
2018-08-25T12:17:12.413Z,0.90
2018-08-25T12:19:39.844Z,0.60
2018-08-25T12:22:07.308Z,0.80
2018-08-25T12:24:34.727Z,0.97
2018-08-25T12:27:02.877Z,0.80
2018-08-25T12:29:30.729Z,0.80
2018-08-25T12:31:58.841Z,0.87
2018-08-25T12:34:26.304Z,0.77
2018-08-25T12:36:53.691Z,0.77
2018-08-25T12:39:21.170Z,0.70
2018-08-25T12:41:48.563Z,0.70
2018-08-25T12:44:16.110Z,0.80
2018-08-25T12:46:43.737Z,0.80
2018-08-25T12:49:11.135Z,0.80
2018-08-25T12:51:38.578Z,0.93
2018-08-25T12:54:06.000Z,0.80
2018-08-25T12:56:33.504Z,0.80
2018-08-25T12:59:00.964Z,0.87
2018-08-25T13:01:28.413Z,0.80
2018-08-25T13:03:55.792Z,0.97
2018-08-25T13:06:23.232Z,0.90
2018-08-25T13:08:50.649Z,0.80
2018-08-25T13:11:18.049Z,0.87
2018-08-25T13:13:45.469Z,0.77
2018-08-25T13:16:12.859Z,0.90
2018-08-25T13:18:41.346Z,0.80
2018-08-25T13:21:08.770Z,0.70
2018-08-25T13:23:36.150Z,0.93
2018-08-25T13:26:03.767Z,0.73
2018-08-25T13:28:31.332Z,0.80
2018-08-25T13:30:58.820Z,0.70
2018-08-25T13:33:26.174Z,0.83
2018-08-25T13:35:53.621Z,0.93
2018-08-25T13:38:21.038Z,1.00
2018-08-25T13:40:48.541Z,0.90
2018-08-25T13:43:15.921Z,0.90
2018-08-25T13:45:43.377Z,1.00
2018-08-25T13:48:10.787Z,0.90
2018-08-25T13:50:38.185Z,0.97
2018-08-25T13:53:05.662Z,0.90
2018-08-25T13:55:33.113Z,0.83
2018-08-25T13:58:00.681Z,0.93
2018-08-25T14:00:28.152Z,0.90
2018-08-25T14:02:55.945Z,0.80
2018-08-25T14:05:23.408Z,1.00
2018-08-25T14:07:50.799Z,0.80
2018-08-25T14:10:18.217Z,0.87
2018-08-25T14:12:45.669Z,0.90
2018-08-25T14:15:13.381Z,1.00
2018-08-25T14:17:40.824Z,1.00
2018-08-25T14:20:08.228Z,0.80
2018-08-25T14:22:35.641Z,0.83
2018-08-25T14:25:03.340Z,0.67
2018-08-25T14:27:30.845Z,0.70
2018-08-25T14:29:58.274Z,0.80
2018-08-25T14:32:25.691Z,0.70
2018-08-25T14:34:53.108Z,0.80
2018-08-25T14:37:20.532Z,0.73
2018-08-25T14:39:47.964Z,0.70
2018-08-25T14:42:15.364Z,0.50
2018-08-25T14:44:42.786Z,0.60
2018-08-25T14:47:10.264Z,0.60
2018-08-25T14:49:37.617Z,0.60
2018-08-25T14:52:05.052Z,0.67
2018-08-25T14:54:32.441Z,0.67
2018-08-25T14:56:59.850Z,0.60
2018-08-25T14:59:27.277Z,1.00
2018-08-25T15:01:54.718Z,1.00
2018-08-25T15:04:22.129Z,0.70
2018-08-25T15:06:49.570Z,0.80
2018-08-25T15:09:17.073Z,0.83
2018-08-25T15:11:45.152Z,0.80
2018-08-25T15:14:12.708Z,0.93
2018-08-25T15:16:40.186Z,0.70
2018-08-25T15:19:07.619Z,0.67
2018-08-25T15:21:35.068Z,0.70
2018-08-25T15:24:02.466Z,0.80
2018-08-25T15:26:29.982Z,0.87
2018-08-25T15:28:57.412Z,0.80
2018-08-25T15:31:24.836Z,0.80
2018-08-25T15:33:52.282Z,0.90
2018-08-25T15:36:19.698Z,0.90
2018-08-25T15:38:47.163Z,0.77
2018-08-25T15:41:14.541Z,0.80
2018-08-25T15:43:42.004Z,0.80
2018-08-25T15:46:09.667Z,0.83
2018-08-25T15:48:37.114Z,0.90
2018-08-25T15:51:04.681Z,1.07
2018-08-25T15:53:32.077Z,1.37
2018-08-25T15:55:59.517Z,2.13
2018-08-25T15:58:26.898Z,1.70
2018-08-25T16:00:54.306Z,1.57
2018-08-25T16:03:21.737Z,1.27
2018-08-25T16:05:49.160Z,1.30
2018-08-25T16:08:16.543Z,1.30
2018-08-25T16:10:43.978Z,1.27
2018-08-25T16:13:11.385Z,1.30
2018-08-25T16:15:38.973Z,1.30
2018-08-25T16:18:06.388Z,1.30
2018-08-25T16:20:33.776Z,1.30
2018-08-25T16:23:01.255Z,1.20
2018-08-25T16:25:28.691Z,1.87
2018-08-25T16:27:56.153Z,1.90
2018-08-25T16:30:23.570Z,1.73
2018-08-25T16:32:51.066Z,2.07
2018-08-25T16:35:18.506Z,1.87
2018-08-25T16:37:45.982Z,1.70
2018-08-25T16:40:13.430Z,1.40
2018-08-25T16:42:40.825Z,1.80
2018-08-25T16:45:08.290Z,1.90
2018-08-25T16:47:35.677Z,1.80
2018-08-25T16:50:03.112Z,1.70
2018-08-25T16:52:30.633Z,1.80
2018-08-25T16:54:58.026Z,1.73
2018-08-25T16:57:25.445Z,1.70
2018-08-25T16:59:52.937Z,1.60
2018-08-25T17:02:20.339Z,1.50
2018-08-25T17:04:47.765Z,1.50
2018-08-25T17:07:15.290Z,1.57
2018-08-25T17:09:42.692Z,1.70
2018-08-25T17:12:10.152Z,1.43
2018-08-25T17:14:37.553Z,1.70
2018-08-25T17:17:05.021Z,1.63
2018-08-25T17:19:32.450Z,1.60
2018-08-25T17:21:59.888Z,1.80
2018-08-25T17:24:27.322Z,1.57
2018-08-25T17:26:54.843Z,1.43
2018-08-25T17:29:22.238Z,1.50
2018-08-25T17:31:49.721Z,1.90
2018-08-25T17:34:17.108Z,2.00
2018-08-25T17:36:44.582Z,2.03
2018-08-25T17:39:12.315Z,2.30
2018-08-25T17:41:40.016Z,2.10
2018-08-25T17:44:07.806Z,2.60
2018-08-25T17:46:35.241Z,1.90
2018-08-25T17:49:02.648Z,1.87
2018-08-25T17:51:30.082Z,1.60
2018-08-25T17:53:57.469Z,1.80
2018-08-25T17:56:24.841Z,1.60
2018-08-25T17:58:52.337Z,1.77
2018-08-25T18:01:19.734Z,2.10
2018-08-25T18:03:47.126Z,1.90
2018-08-25T18:06:14.736Z,1.90
2018-08-25T18:08:42.155Z,1.80
2018-08-25T18:11:09.697Z,2.03
2018-08-25T18:13:37.061Z,2.57
2018-08-25T18:16:04.486Z,2.47
2018-08-25T18:18:31.949Z,2.70
2018-08-25T18:20:59.390Z,2.33
2018-08-25T18:23:26.989Z,2.90
2018-08-25T18:25:54.453Z,2.30
2018-08-25T18:28:21.968Z,2.50
2018-08-25T18:30:49.344Z,2.30
2018-08-25T18:33:16.755Z,2.30
2018-08-25T18:35:44.701Z,2.87
2018-08-25T18:38:12.142Z,3.37
2018-08-25T18:40:39.561Z,2.77
2018-08-25T18:43:06.988Z,3.00
2018-08-25T18:45:34.394Z,3.50
2018-08-25T18:48:01.895Z,3.93
2018-08-25T18:50:29.253Z,3.80
2018-08-25T18:52:56.657Z,4.00
2018-08-25T18:55:24.108Z,4.00
2018-08-25T18:57:51.553Z,3.70
2018-08-25T19:00:19.017Z,3.40
2018-08-25T19:02:46.434Z,3.30
2018-08-25T19:05:13.857Z,3.30
2018-08-25T19:07:41.374Z,3.20
2018-08-25T19:10:08.939Z,2.50
2018-08-25T19:12:36.317Z,2.33
2018-08-25T19:15:03.878Z,2.30
2018-08-25T19:17:31.273Z,2.37
2018-08-25T19:19:58.734Z,2.90
2018-08-25T19:22:26.121Z,3.40
2018-08-25T19:24:53.557Z,2.97
2018-08-25T19:27:21.015Z,3.23
2018-08-25T19:29:48.500Z,3.43
2018-08-25T19:32:15.981Z,3.80
2018-08-25T19:34:43.430Z,3.83
2018-08-25T19:37:10.887Z,3.30
2018-08-25T19:39:38.277Z,4.20
2018-08-25T19:42:05.758Z,4.17
2018-08-25T19:44:33.173Z,4.13
2018-08-25T19:47:00.584Z,3.40
2018-08-25T19:49:27.981Z,4.10
2018-08-25T19:51:55.441Z,4.07
2018-08-25T19:54:22.829Z,4.03
2018-08-25T19:56:50.710Z,2.97
2018-08-25T19:59:18.729Z,3.17
2018-08-25T20:01:46.191Z,2.70
2018-08-25T20:04:14.352Z,2.53
2018-08-25T20:06:41.878Z,2.20
2018-08-25T20:09:09.275Z,2.10
2018-08-25T20:11:36.834Z,2.13
2018-08-25T20:14:04.628Z,2.50
2018-08-25T20:16:32.105Z,2.23
2018-08-25T20:18:59.497Z,2.60
2018-08-25T20:21:26.933Z,2.70
2018-08-25T20:23:54.391Z,2.80
2018-08-25T20:26:21.779Z,2.50
2018-08-25T20:28:49.178Z,2.13
2018-08-25T20:31:16.589Z,2.20
2018-08-25T20:33:44.072Z,2.70
2018-08-25T20:36:11.490Z,2.37
2018-08-25T20:38:38.922Z,2.97
2018-08-25T20:41:06.377Z,2.67
2018-08-25T20:43:33.781Z,2.87
2018-08-25T20:46:01.254Z,2.50
2018-08-25T20:48:28.674Z,3.17
2018-08-25T20:50:56.064Z,2.70
2018-08-25T20:53:23.514Z,2.83
2018-08-25T20:55:50.892Z,2.93
2018-08-25T20:58:18.329Z,3.10
2018-08-25T21:00:45.746Z,3.97
2018-08-25T21:03:13.129Z,3.63
2018-08-25T21:05:40.530Z,2.87
2018-08-25T21:08:07.950Z,2.70
2018-08-25T21:10:35.420Z,2.90
2018-08-25T21:13:02.847Z,2.40
2018-08-25T21:15:30.277Z,2.83
2018-08-25T21:17:57.717Z,2.47
2018-08-25T21:20:25.100Z,2.47
2018-08-25T21:22:52.498Z,2.80
2018-08-25T21:25:19.939Z,3.30
2018-08-25T21:27:47.325Z,3.47
2018-08-25T21:30:14.736Z,3.10
2018-08-25T21:32:42.148Z,3.20
2018-08-25T21:35:09.542Z,3.50
2018-08-25T21:37:36.957Z,3.53
2018-08-25T21:40:04.431Z,3.20
2018-08-25T21:42:31.841Z,3.40
2018-08-25T21:44:59.265Z,3.17
2018-08-25T21:47:27.405Z,3.23
2018-08-25T21:49:54.799Z,2.87
2018-08-25T21:52:22.188Z,3.00
2018-08-25T21:54:49.614Z,3.20
2018-08-25T21:57:17.017Z,3.60
2018-08-25T21:59:44.429Z,3.47
2018-08-25T22:02:17.220Z,3.70
2018-08-25T22:04:44.893Z,4.43
2018-08-25T22:07:12.280Z,5.07
2018-08-25T22:09:39.704Z,5.00
2018-08-25T22:12:07.096Z,4.40
2018-08-25T22:14:34.552Z,4.27
2018-08-25T22:17:02.049Z,3.57
2018-08-25T22:19:29.418Z,3.10
2018-08-25T22:21:56.827Z,2.80
2018-08-25T22:24:24.265Z,2.87
2018-08-25T22:26:51.649Z,3.67
2018-08-25T22:29:19.085Z,3.90
2018-08-25T22:31:46.494Z,3.53
2018-08-25T22:34:14.034Z,3.60
2018-08-25T22:36:41.444Z,12.47
2018-08-25T22:39:10.424Z,8.60
2018-08-25T22:41:38.065Z,2.80
2018-08-25T22:44:05.755Z,8.30
2018-08-25T22:46:33.129Z,5.00
2018-08-25T22:49:00.573Z,2.73
2018-08-25T22:51:28.072Z,2.50
2018-08-25T22:53:55.416Z,3.00
2018-08-25T22:56:22.826Z,3.83
2018-08-25T22:58:50.221Z,5.10
2018-08-25T23:01:17.672Z,3.73
2018-08-25T23:03:45.089Z,3.60
2018-08-25T23:06:12.478Z,3.13
2018-08-25T23:08:40.061Z,3.10
2018-08-25T23:11:07.438Z,2.80
2018-08-25T23:13:34.853Z,3.63
2018-08-25T23:16:02.245Z,4.07
2018-08-25T23:18:29.654Z,3.40
2018-08-25T23:20:57.113Z,3.67
2018-08-25T23:23:24.554Z,3.37
2018-08-25T23:25:51.986Z,2.70
2018-08-25T23:28:19.558Z,2.90
2018-08-25T23:30:47.004Z,3.30
2018-08-25T23:33:14.345Z,3.17
2018-08-25T23:35:41.757Z,3.63
2018-08-25T23:38:09.184Z,3.70
2018-08-25T23:40:36.626Z,3.93
2018-08-25T23:43:04.204Z,4.37
2018-08-25T23:45:31.684Z,4.00
2018-08-25T23:47:59.105Z,4.20
2018-08-25T23:50:26.521Z,4.40
2018-08-25T23:52:53.945Z,3.83
2018-08-25T23:55:21.339Z,3.73
2018-08-25T23:57:48.776Z,3.97
